createdAt,value
2023-03-17T00:00:23.826Z,3.37
2023-03-17T00:01:56.957Z,3.32
2023-03-17T00:03:29.906Z,3.31
2023-03-17T00:05:01.700Z,3.33
2023-03-17T00:06:35.230Z,3.34
2023-03-17T00:08:17.899Z,3.28
2023-03-17T00:09:49.599Z,3.26
2023-03-17T00:11:21.382Z,3.23
2023-03-17T00:12:55.227Z,3.24
2023-03-17T00:14:27.043Z,3.23
2023-03-17T00:16:04.037Z,3.23
2023-03-17T00:17:36.661Z,3.20
2023-03-17T00:19:16.679Z,3.18
2023-03-17T00:20:48.644Z,3.23
2023-03-17T00:22:22.346Z,3.17
2023-03-17T00:23:54.954Z,3.17
2023-03-17T00:25:30.191Z,3.19
2023-03-17T00:27:02.406Z,3.18
2023-03-17T00:28:34.170Z,3.18
2023-03-17T00:30:06.501Z,3.18
2023-03-17T00:31:39.686Z,3.15
2023-03-17T00:33:12.569Z,3.14
2023-03-17T00:34:45.541Z,3.11
2023-03-17T00:36:19.918Z,3.12
2023-03-17T00:37:54.063Z,3.10
2023-03-17T00:39:25.938Z,3.09
2023-03-17T00:40:59.532Z,3.13
2023-03-17T00:42:31.218Z,3.10
2023-03-17T00:44:03.589Z,3.11
2023-03-17T00:45:35.914Z,3.09
2023-03-17T00:47:10.942Z,3.09
2023-03-17T00:48:45.093Z,3.13
2023-03-17T00:50:25.456Z,3.12
2023-03-17T00:51:57.245Z,3.13
2023-03-17T00:53:28.955Z,3.10
2023-03-17T00:55:00.962Z,3.08
2023-03-17T00:56:33.089Z,3.12
2023-03-17T00:58:13.917Z,3.04
2023-03-17T00:59:46.135Z,3.09
2023-03-17T01:01:18.643Z,3.08
2023-03-17T01:02:57.335Z,3.06
2023-03-17T01:04:29.065Z,3.02
2023-03-17T01:06:02.894Z,3.04
2023-03-17T01:07:35.182Z,3.00
2023-03-17T01:09:08.342Z,3.02
2023-03-17T01:10:40.063Z,3.00
2023-03-17T01:12:14.238Z,3.03
2023-03-17T01:13:46.913Z,3.04
2023-03-17T01:15:20.621Z,3.05
2023-03-17T01:16:55.373Z,2.97
2023-03-17T01:18:27.600Z,3.04
2023-03-17T01:19:59.533Z,3.01
2023-03-17T01:21:31.662Z,3.04
2023-03-17T01:23:04.193Z,3.07
2023-03-17T01:24:36.470Z,3.03
2023-03-17T01:26:08.385Z,3.03
2023-03-17T01:27:42.173Z,3.00
2023-03-17T01:29:16.625Z,3.02
2023-03-17T01:30:49.357Z,3.05
2023-03-17T01:32:22.564Z,3.08
2023-03-17T01:33:55.801Z,3.03
2023-03-17T01:35:32.182Z,3.05
2023-03-17T01:37:03.908Z,3.04
2023-03-17T01:38:35.990Z,3.02
2023-03-17T01:40:12.990Z,2.96
2023-03-17T01:41:45.676Z,2.95
2023-03-17T01:43:22.627Z,2.96
2023-03-17T01:45:06.224Z,2.96
2023-03-17T01:46:38.613Z,2.99
2023-03-17T01:48:10.583Z,3.00
2023-03-17T01:49:43.244Z,2.97
2023-03-17T01:51:21.103Z,2.97
2023-03-17T01:52:52.861Z,2.97
2023-03-17T01:54:50.491Z,2.96
2023-03-17T01:56:23.283Z,2.96
2023-03-17T01:57:56.488Z,2.96
2023-03-17T01:59:33.848Z,2.92
2023-03-17T02:01:07.520Z,2.96
2023-03-17T02:02:42.970Z,2.96
2023-03-17T02:04:16.308Z,2.94
2023-03-17T02:05:51.521Z,2.95
2023-03-17T02:07:26.721Z,2.93
2023-03-17T02:09:00.287Z,2.96
2023-03-17T02:10:32.460Z,2.96
2023-03-17T02:12:07.067Z,2.91
2023-03-17T02:13:39.068Z,2.90
2023-03-17T02:15:11.960Z,2.94
2023-03-17T02:16:45.359Z,2.92
2023-03-17T02:18:19.471Z,2.89
2023-03-17T02:19:51.968Z,2.92
2023-03-17T02:21:45.360Z,2.91
2023-03-17T02:23:22.517Z,2.93
2023-03-17T02:24:59.594Z,2.90
2023-03-17T02:26:34.518Z,2.90
2023-03-17T02:28:10.789Z,2.91
2023-03-17T02:29:42.653Z,2.91
2023-03-17T02:31:14.714Z,2.92
2023-03-17T02:32:47.436Z,2.94
2023-03-17T02:34:19.254Z,2.93
2023-03-17T02:35:51.285Z,2.95
2023-03-17T02:37:23.735Z,2.96
2023-03-17T02:38:57.709Z,3.00
2023-03-17T02:40:30.138Z,3.05
2023-03-17T02:42:02.093Z,3.08
2023-03-17T02:43:33.812Z,3.10
2023-03-17T02:45:07.071Z,3.12
2023-03-17T02:46:38.814Z,3.11
2023-03-17T02:48:10.965Z,3.12
2023-03-17T02:49:44.103Z,3.13
2023-03-17T02:51:16.328Z,3.16
2023-03-17T02:52:48.089Z,3.15
2023-03-17T02:54:20.066Z,3.17
2023-03-17T02:55:51.779Z,3.17
2023-03-17T02:57:25.198Z,3.18
2023-03-17T02:58:57.316Z,3.18
2023-03-17T03:00:30.328Z,3.16
2023-03-17T03:02:02.230Z,3.17
2023-03-17T03:03:33.992Z,3.21
2023-03-17T03:05:07.504Z,3.21
2023-03-17T03:06:39.957Z,3.20
2023-03-17T03:08:11.684Z,3.19
2023-03-17T03:09:43.426Z,3.21
2023-03-17T03:11:15.329Z,3.20
2023-03-17T03:12:47.519Z,3.20
2023-03-17T03:14:19.232Z,3.23
2023-03-17T03:15:51.106Z,3.21
2023-03-17T03:17:23.169Z,3.22
2023-03-17T03:18:54.944Z,3.21
2023-03-17T03:20:26.658Z,3.21
2023-03-17T03:21:58.385Z,3.21
2023-03-17T03:23:30.202Z,3.20
2023-03-17T03:25:01.969Z,3.19
2023-03-17T03:26:33.666Z,3.20
2023-03-17T03:28:08.207Z,3.20
2023-03-17T03:29:39.922Z,3.23
2023-03-17T03:31:11.835Z,3.24
2023-03-17T03:32:43.958Z,3.18
2023-03-17T03:34:16.300Z,3.14
2023-03-17T03:35:48.065Z,3.20
2023-03-17T03:37:19.911Z,3.21
2023-03-17T03:38:51.793Z,3.27
2023-03-17T03:40:24.296Z,3.25
2023-03-17T03:41:58.423Z,3.23
2023-03-17T03:43:30.247Z,3.24
2023-03-17T03:45:01.955Z,3.23
2023-03-17T03:46:33.711Z,3.28
2023-03-17T03:48:05.566Z,3.30
2023-03-17T03:49:37.257Z,3.33
2023-03-17T03:51:08.987Z,3.34
2023-03-17T03:52:40.936Z,3.32
2023-03-17T03:54:12.653Z,3.28
2023-03-17T03:55:44.376Z,3.28
2023-03-17T03:57:16.076Z,3.27
2023-03-17T03:58:47.789Z,3.27
2023-03-17T04:00:20.008Z,3.33
2023-03-17T04:01:51.734Z,3.35
2023-03-17T04:03:23.521Z,3.35
2023-03-17T04:04:55.746Z,3.36
2023-03-17T04:06:27.721Z,3.34
2023-03-17T04:07:59.452Z,3.33
2023-03-17T04:09:31.161Z,3.32
2023-03-17T04:11:02.867Z,3.28
2023-03-17T04:12:34.732Z,3.30
2023-03-17T04:14:06.607Z,3.34
2023-03-17T04:15:38.467Z,3.33
2023-03-17T04:17:11.479Z,3.33
2023-03-17T04:18:46.261Z,3.36
2023-03-17T04:20:18.718Z,3.33
2023-03-17T04:21:53.483Z,3.34
2023-03-17T04:23:26.248Z,3.31
2023-03-17T04:24:57.970Z,3.30
2023-03-17T04:26:29.678Z,3.30
2023-03-17T04:28:01.884Z,3.31
2023-03-17T04:29:33.961Z,3.28
2023-03-17T04:31:05.733Z,3.28
2023-03-17T04:32:38.315Z,3.22
2023-03-17T04:34:15.809Z,3.23
2023-03-17T04:35:47.542Z,3.21
2023-03-17T04:37:19.457Z,3.19
2023-03-17T04:38:51.174Z,3.18
2023-03-17T04:40:22.998Z,3.15
2023-03-17T04:41:54.797Z,3.13
2023-03-17T04:43:27.217Z,3.07
2023-03-17T04:44:59.194Z,3.06
2023-03-17T04:46:31.261Z,2.99
2023-03-17T04:48:03.028Z,2.99
2023-03-17T04:49:36.140Z,2.97
2023-03-17T04:51:09.277Z,2.98
2023-03-17T04:52:42.722Z,2.95
2023-03-17T04:54:14.445Z,2.90
2023-03-17T04:55:46.528Z,2.85
2023-03-17T04:57:18.342Z,2.89
2023-03-17T04:58:50.079Z,2.88
2023-03-17T05:00:21.958Z,2.92
2023-03-17T05:01:53.693Z,2.90
2023-03-17T05:03:27.645Z,2.84
2023-03-17T05:04:59.773Z,2.85
2023-03-17T05:06:31.602Z,2.84
2023-03-17T05:08:03.558Z,2.82
2023-03-17T05:09:35.297Z,2.77
2023-03-17T05:11:07.006Z,2.85
2023-03-17T05:12:38.690Z,2.84
2023-03-17T05:14:10.461Z,2.80
2023-03-17T05:15:48.308Z,2.78
2023-03-17T05:17:20.813Z,2.83
2023-03-17T05:18:52.528Z,2.77
2023-03-17T05:20:24.239Z,2.78
2023-03-17T05:21:56.256Z,2.80
2023-03-17T05:23:28.675Z,2.83
2023-03-17T05:25:00.663Z,2.88
2023-03-17T05:26:32.810Z,2.84
2023-03-17T05:28:04.652Z,2.85
2023-03-17T05:29:36.370Z,2.90
2023-03-17T05:31:10.902Z,2.91
2023-03-17T05:32:43.210Z,2.88
2023-03-17T05:34:16.075Z,2.89
2023-03-17T05:35:47.886Z,2.92
2023-03-17T05:37:19.630Z,2.88
2023-03-17T05:38:52.510Z,2.92
2023-03-17T05:40:24.484Z,2.89
2023-03-17T05:41:57.244Z,2.94
2023-03-17T05:43:28.953Z,2.93
2023-03-17T05:45:00.696Z,2.89
2023-03-17T05:46:32.772Z,2.88
2023-03-17T05:48:05.022Z,2.93
2023-03-17T05:49:37.064Z,2.92
2023-03-17T05:51:08.831Z,2.95
2023-03-17T05:52:40.733Z,2.99
2023-03-17T05:54:12.532Z,2.96
2023-03-17T05:55:44.713Z,2.92
2023-03-17T05:57:16.587Z,2.98
2023-03-17T05:58:48.313Z,2.99
2023-03-17T06:00:21.695Z,3.05
2023-03-17T06:01:53.732Z,3.06
2023-03-17T06:03:25.551Z,3.05
2023-03-17T06:04:57.881Z,3.04
2023-03-17T06:06:29.578Z,3.03
2023-03-17T06:08:01.366Z,3.07
2023-03-17T06:09:33.809Z,3.08
2023-03-17T06:11:05.708Z,3.12
2023-03-17T06:12:37.703Z,3.11
2023-03-17T06:14:09.491Z,3.12
2023-03-17T06:15:43.195Z,3.13
2023-03-17T06:17:15.028Z,3.11
2023-03-17T06:18:46.726Z,3.13
2023-03-17T06:20:19.328Z,3.16
2023-03-17T06:21:51.029Z,3.05
2023-03-17T06:23:23.915Z,3.11
2023-03-17T06:24:56.159Z,3.19
2023-03-17T06:26:28.390Z,3.19
2023-03-17T06:28:03.901Z,3.22
2023-03-17T06:29:35.824Z,3.24
2023-03-17T06:31:08.968Z,3.28
2023-03-17T06:32:40.791Z,3.25
2023-03-17T06:34:12.741Z,3.25
2023-03-17T06:35:44.715Z,3.29
2023-03-17T06:37:16.768Z,3.33
2023-03-17T06:38:48.477Z,3.35
2023-03-17T06:40:20.486Z,3.42
2023-03-17T06:41:52.333Z,3.43
2023-03-17T06:43:25.022Z,3.46
2023-03-17T06:44:56.915Z,3.46
2023-03-17T06:46:28.786Z,3.55
2023-03-17T06:48:00.570Z,3.56
2023-03-17T06:49:32.542Z,3.55
2023-03-17T06:51:04.531Z,3.61
2023-03-17T06:52:36.923Z,3.62
2023-03-17T06:54:09.052Z,3.72
2023-03-17T06:55:42.215Z,3.76
2023-03-17T06:57:14.244Z,3.82
2023-03-17T06:58:47.109Z,3.85
2023-03-17T07:00:19.814Z,3.93
2023-03-17T07:01:52.277Z,3.97
2023-03-17T07:03:25.588Z,4.02
2023-03-17T07:04:58.332Z,3.99
2023-03-17T07:06:31.103Z,4.03
2023-03-17T07:08:02.795Z,4.11
2023-03-17T07:09:35.614Z,4.18
2023-03-17T07:11:07.560Z,4.19
2023-03-17T07:12:39.652Z,4.27
2023-03-17T07:14:11.370Z,4.30
2023-03-17T07:15:45.400Z,4.36
2023-03-17T07:17:17.183Z,4.44
2023-03-17T07:18:48.975Z,4.47
2023-03-17T07:20:21.267Z,4.50
2023-03-17T07:21:55.840Z,4.54
2023-03-17T07:23:29.413Z,4.58
2023-03-17T07:25:01.262Z,4.66
2023-03-17T07:26:33.026Z,4.70
2023-03-17T07:28:04.921Z,4.75
2023-03-17T07:29:36.812Z,4.81
2023-03-17T07:31:10.667Z,4.80
2023-03-17T07:32:43.466Z,4.90
2023-03-17T07:34:16.521Z,4.95
2023-03-17T07:35:49.656Z,4.95
2023-03-17T07:37:21.760Z,5.05
2023-03-17T07:38:53.475Z,5.11
2023-03-17T07:40:26.190Z,5.05
2023-03-17T07:41:57.908Z,5.07
2023-03-17T07:43:30.203Z,5.10
2023-03-17T07:45:02.705Z,5.16
2023-03-17T07:46:34.451Z,5.12
2023-03-17T07:48:07.124Z,5.09
2023-03-17T07:49:41.949Z,5.08
2023-03-17T07:51:16.710Z,5.21
2023-03-17T07:52:48.421Z,5.23
2023-03-17T07:54:20.257Z,5.16
2023-03-17T07:55:52.677Z,5.12
2023-03-17T07:57:25.556Z,5.17
2023-03-17T07:58:58.655Z,5.16
2023-03-17T08:00:31.153Z,5.22
2023-03-17T08:02:03.891Z,5.19
2023-03-17T08:03:38.716Z,5.25
2023-03-17T08:05:14.360Z,5.29
2023-03-17T08:06:46.999Z,5.25
2023-03-17T08:08:20.154Z,5.28
2023-03-17T08:09:52.795Z,5.37
2023-03-17T08:11:24.517Z,5.44
2023-03-17T08:12:56.522Z,5.53
2023-03-17T08:14:28.205Z,5.54
2023-03-17T08:16:00.913Z,5.63
2023-03-17T08:17:33.249Z,5.64
2023-03-17T08:19:06.387Z,5.73
2023-03-17T08:20:39.203Z,5.74
2023-03-17T08:22:11.088Z,5.80
2023-03-17T08:23:43.338Z,5.96
2023-03-17T08:25:15.539Z,6.03
2023-03-17T08:26:50.483Z,6.00
2023-03-17T08:28:22.278Z,6.06
2023-03-17T08:29:54.044Z,6.18
2023-03-17T08:31:26.009Z,6.26
2023-03-17T08:32:58.243Z,6.33
2023-03-17T08:34:30.109Z,6.38
2023-03-17T08:36:06.445Z,6.42
2023-03-17T08:37:38.266Z,6.51
2023-03-17T08:39:10.605Z,6.58
2023-03-17T08:40:42.866Z,6.66
2023-03-17T08:42:14.753Z,6.65
2023-03-17T08:43:47.933Z,6.77
2023-03-17T08:45:19.894Z,6.86
2023-03-17T08:46:52.184Z,6.89
2023-03-17T08:48:24.076Z,6.84
2023-03-17T08:49:56.431Z,6.92
2023-03-17T08:51:31.337Z,6.98
2023-03-17T08:53:03.090Z,7.01
2023-03-17T08:54:35.946Z,7.07
2023-03-17T08:56:08.596Z,7.09
2023-03-17T08:57:40.843Z,7.06
2023-03-17T08:59:13.157Z,7.02
2023-03-17T09:00:47.153Z,7.15
2023-03-17T09:02:19.211Z,7.20
2023-03-17T09:03:53.567Z,7.32
2023-03-17T09:05:25.392Z,7.32
2023-03-17T09:07:04.971Z,7.41
2023-03-17T09:08:40.051Z,7.47
2023-03-17T09:10:13.899Z,7.52
2023-03-17T09:11:45.595Z,7.54
2023-03-17T09:13:17.764Z,7.58
2023-03-17T09:14:50.559Z,7.66
2023-03-17T09:16:24.148Z,7.74
2023-03-17T09:17:55.985Z,7.79
2023-03-17T09:19:27.794Z,7.83
2023-03-17T09:20:59.917Z,7.87
2023-03-17T09:22:31.926Z,7.79
2023-03-17T09:24:03.806Z,7.84
2023-03-17T09:25:37.500Z,7.91
2023-03-17T09:27:09.342Z,8.04
2023-03-17T09:28:42.818Z,8.13
2023-03-17T09:30:14.878Z,8.30
2023-03-17T09:31:47.661Z,8.39
2023-03-17T09:33:19.379Z,8.44
2023-03-17T09:34:51.733Z,8.59
2023-03-17T09:36:24.313Z,8.73
2023-03-17T09:37:56.022Z,8.81
2023-03-17T09:39:27.844Z,8.90
2023-03-17T09:41:24.704Z,8.97
2023-03-17T09:43:12.954Z,9.10
2023-03-17T09:45:20.154Z,9.37
2023-03-17T09:47:08.593Z,9.51
2023-03-17T09:48:50.151Z,9.67
2023-03-17T09:50:33.098Z,9.89
2023-03-17T09:52:30.466Z,9.82
2023-03-17T09:54:04.915Z,10.07
2023-03-17T09:55:38.123Z,10.25
2023-03-17T09:57:19.340Z,10.36
2023-03-17T09:58:55.046Z,10.51
2023-03-17T10:00:31.296Z,10.55
2023-03-17T10:02:03.273Z,10.69
2023-03-17T10:03:37.610Z,10.81
2023-03-17T10:05:30.400Z,10.92
2023-03-17T10:07:05.736Z,11.07
2023-03-17T10:08:49.059Z,11.10
2023-03-17T10:11:03.473Z,11.33
2023-03-17T10:12:53.811Z,11.49
2023-03-17T10:14:36.302Z,11.63
2023-03-17T10:16:28.427Z,11.75
2023-03-17T10:18:00.455Z,11.96
2023-03-17T10:19:50.431Z,12.09
2023-03-17T10:21:27.380Z,12.22
2023-03-17T10:23:09.837Z,12.31
2023-03-17T10:24:47.889Z,12.28
2023-03-17T10:26:34.404Z,12.46
2023-03-17T10:28:25.088Z,12.56
2023-03-17T10:29:57.172Z,12.59
2023-03-17T10:31:33.345Z,12.73
2023-03-17T10:33:07.334Z,12.90
2023-03-17T10:34:41.593Z,13.04
2023-03-17T10:36:16.743Z,13.13
2023-03-17T10:37:48.540Z,13.20
2023-03-17T10:39:23.863Z,13.26
2023-03-17T10:41:08.417Z,13.29
2023-03-17T10:42:47.836Z,13.24
2023-03-17T10:44:34.424Z,13.24
2023-03-17T10:46:17.287Z,13.34
2023-03-17T10:47:50.231Z,13.44
2023-03-17T10:49:24.658Z,13.38
2023-03-17T10:50:58.868Z,13.51
2023-03-17T10:52:35.893Z,13.53
2023-03-17T10:54:11.377Z,13.51
2023-03-17T10:55:49.939Z,13.51
2023-03-17T10:57:22.240Z,13.55
2023-03-17T10:58:55.655Z,13.58
2023-03-17T11:00:33.932Z,13.58
2023-03-17T11:02:19.166Z,13.53
2023-03-17T11:03:51.133Z,13.54
2023-03-17T11:05:29.518Z,13.58
2023-03-17T11:07:07.990Z,13.66
2023-03-17T11:08:53.827Z,13.63
2023-03-17T11:10:27.454Z,13.55
2023-03-17T11:12:03.712Z,13.50
2023-03-17T11:13:35.482Z,13.58
2023-03-17T11:15:15.688Z,13.50
2023-03-17T11:17:02.731Z,13.56
2023-03-17T11:18:39.776Z,13.63
2023-03-17T11:20:27.710Z,13.73
2023-03-17T11:22:10.109Z,13.90
2023-03-17T11:24:02.545Z,13.97
2023-03-17T11:25:41.316Z,14.01
2023-03-17T11:27:29.360Z,14.14
2023-03-17T11:29:15.850Z,14.21
2023-03-17T11:31:32.326Z,14.23
2023-03-17T11:33:16.146Z,14.11
2023-03-17T11:35:00.196Z,14.33
2023-03-17T11:36:55.240Z,14.37
2023-03-17T11:38:31.009Z,14.50
2023-03-17T11:40:26.954Z,14.52
2023-03-17T11:41:58.821Z,14.57
2023-03-17T11:43:37.436Z,14.55
2023-03-17T11:45:21.306Z,14.57
2023-03-17T11:47:07.533Z,14.70
2023-03-17T11:49:03.768Z,14.82
2023-03-17T11:50:44.996Z,14.80
2023-03-17T11:52:32.879Z,14.82
2023-03-17T11:54:33.463Z,14.88
2023-03-17T11:56:21.256Z,14.91
2023-03-17T11:58:01.226Z,14.98
2023-03-17T11:59:58.346Z,14.95
2023-03-17T12:01:54.903Z,15.02
2023-03-17T12:03:53.136Z,15.05
2023-03-17T12:05:30.197Z,15.05
2023-03-17T12:07:11.981Z,14.98
2023-03-17T12:08:49.586Z,14.97
2023-03-17T12:10:41.852Z,15.03
2023-03-17T12:12:19.962Z,14.99
2023-03-17T12:14:01.133Z,14.95
2023-03-17T12:15:38.725Z,15.03
2023-03-17T12:17:30.487Z,15.00
2023-03-17T12:19:13.299Z,15.11
2023-03-17T12:20:51.592Z,15.20
2023-03-17T12:22:30.718Z,15.26
2023-03-17T12:24:50.429Z,15.16
2023-03-17T12:26:33.682Z,15.22
2023-03-17T12:28:16.502Z,15.27
2023-03-17T12:30:00.726Z,15.27
2023-03-17T12:31:39.352Z,15.12
2023-03-17T12:33:21.846Z,15.09
2023-03-17T12:34:59.998Z,15.06
2023-03-17T12:36:34.429Z,15.10
2023-03-17T12:38:18.586Z,14.98
2023-03-17T12:40:15.556Z,14.97
2023-03-17T12:41:53.847Z,14.98
2023-03-17T12:43:56.121Z,14.94
2023-03-17T12:45:46.364Z,14.97
2023-03-17T12:47:50.602Z,14.90
2023-03-17T12:49:53.635Z,14.78
2023-03-17T12:51:48.423Z,14.74
2023-03-17T12:53:30.661Z,14.73
2023-03-17T12:55:05.108Z,14.62
2023-03-17T12:56:39.610Z,14.57
2023-03-17T12:58:35.964Z,14.43
2023-03-17T13:00:29.737Z,14.43
2023-03-17T13:02:16.691Z,14.37
2023-03-17T13:04:02.521Z,14.33
2023-03-17T13:05:37.431Z,14.31
2023-03-17T13:07:15.364Z,14.26
2023-03-17T13:08:51.650Z,14.24
2023-03-17T13:10:42.128Z,14.13
2023-03-17T13:12:44.736Z,14.13
2023-03-17T13:14:27.229Z,14.00
2023-03-17T13:16:00.586Z,14.06
2023-03-17T13:17:33.484Z,14.07
2023-03-17T13:19:07.991Z,14.05
2023-03-17T13:20:42.694Z,14.07
2023-03-17T13:22:14.396Z,14.05
2023-03-17T13:24:19.348Z,14.01
2023-03-17T13:25:53.938Z,14.03
2023-03-17T13:27:31.965Z,14.03
2023-03-17T13:29:24.348Z,14.03
2023-03-17T13:31:09.155Z,14.09
2023-03-17T13:32:41.000Z,14.07
2023-03-17T13:34:15.264Z,13.97
2023-03-17T13:35:58.705Z,13.93
2023-03-17T13:37:59.728Z,13.87
2023-03-17T13:40:11.015Z,13.87
2023-03-17T13:42:15.664Z,13.85
2023-03-17T13:44:00.730Z,13.95
2023-03-17T13:45:40.660Z,13.94
2023-03-17T13:47:34.899Z,13.88
2023-03-17T13:49:18.797Z,13.92
2023-03-17T13:50:59.426Z,14.01
2023-03-17T13:52:38.265Z,14.05
2023-03-17T13:54:28.385Z,13.92
2023-03-17T13:56:22.520Z,14.03
2023-03-17T13:58:09.154Z,14.12
2023-03-17T13:59:57.725Z,14.05
2023-03-17T14:01:37.653Z,14.01
2023-03-17T14:03:20.092Z,13.97
2023-03-17T14:04:55.881Z,14.04
2023-03-17T14:06:31.691Z,14.06
2023-03-17T14:08:15.926Z,14.00
2023-03-17T14:09:53.523Z,14.02
2023-03-17T14:11:39.721Z,13.98
2023-03-17T14:13:25.973Z,14.03
2023-03-17T14:15:08.129Z,14.04
2023-03-17T14:16:59.102Z,13.92
2023-03-17T14:18:35.554Z,13.90
2023-03-17T14:20:13.071Z,13.99
2023-03-17T14:21:44.795Z,13.97
2023-03-17T14:23:18.083Z,13.93
2023-03-17T14:24:54.940Z,13.95
2023-03-17T14:26:31.308Z,13.92
2023-03-17T14:28:09.347Z,13.89
2023-03-17T14:29:43.724Z,13.86
2023-03-17T14:31:27.390Z,13.89
2023-03-17T14:33:06.543Z,13.91
2023-03-17T14:34:48.413Z,13.94
2023-03-17T14:36:20.670Z,13.93
2023-03-17T14:37:52.413Z,13.96
2023-03-17T14:39:26.029Z,13.99
2023-03-17T14:41:17.074Z,13.89
2023-03-17T14:42:49.373Z,13.93
2023-03-17T14:44:21.084Z,13.95
2023-03-17T14:46:04.626Z,13.87
2023-03-17T14:47:41.708Z,13.94
2023-03-17T14:49:17.461Z,13.92
2023-03-17T14:50:59.912Z,13.94
2023-03-17T14:52:33.201Z,13.90
2023-03-17T14:54:12.828Z,13.88
2023-03-17T14:55:45.701Z,13.86
2023-03-17T14:57:17.501Z,13.90
2023-03-17T14:58:51.659Z,13.80
2023-03-17T15:00:32.026Z,13.87
2023-03-17T15:02:23.825Z,13.77
2023-03-17T15:03:59.319Z,13.84
2023-03-17T15:05:43.316Z,13.83
2023-03-17T15:07:36.100Z,13.81
2023-03-17T15:09:38.296Z,13.69
2023-03-17T15:11:18.352Z,13.67
2023-03-17T15:13:00.716Z,13.50
2023-03-17T15:14:35.514Z,13.57
2023-03-17T15:16:15.225Z,13.49
2023-03-17T15:17:50.449Z,13.48
2023-03-17T15:19:29.995Z,13.29
2023-03-17T15:21:01.776Z,13.33
2023-03-17T15:22:36.222Z,13.23
2023-03-17T15:24:25.605Z,13.15
2023-03-17T15:25:57.413Z,13.14
2023-03-17T15:27:31.350Z,12.97
2023-03-17T15:29:03.201Z,12.99
2023-03-17T15:30:46.861Z,12.94
2023-03-17T15:32:22.283Z,12.82
2023-03-17T15:33:54.208Z,12.81
2023-03-17T15:35:27.391Z,12.66
2023-03-17T15:36:59.296Z,12.57
2023-03-17T15:38:31.928Z,12.47
2023-03-17T15:40:09.472Z,12.44
2023-03-17T15:41:41.391Z,12.42
2023-03-17T15:43:17.970Z,12.36
2023-03-17T15:44:49.832Z,12.24
2023-03-17T15:46:27.399Z,12.20
2023-03-17T15:47:59.595Z,12.20
2023-03-17T15:49:31.363Z,12.12
2023-03-17T15:51:03.509Z,12.07
2023-03-17T15:52:35.943Z,12.08
2023-03-17T15:54:12.939Z,12.00
2023-03-17T15:55:45.121Z,11.94
2023-03-17T15:57:17.358Z,11.86
2023-03-17T15:58:52.509Z,11.87
2023-03-17T16:00:30.055Z,11.82
2023-03-17T16:02:02.498Z,11.79
2023-03-17T16:03:37.167Z,11.73
2023-03-17T16:05:21.797Z,11.64
2023-03-17T16:06:53.535Z,11.67
2023-03-17T16:08:25.524Z,11.63
2023-03-17T16:09:57.955Z,11.63
2023-03-17T16:11:31.452Z,11.55
2023-03-17T16:13:03.257Z,11.56
2023-03-17T16:14:34.986Z,11.53
2023-03-17T16:16:10.413Z,11.56
2023-03-17T16:17:43.362Z,11.51
2023-03-17T16:19:21.797Z,11.52
2023-03-17T16:20:54.062Z,11.51
2023-03-17T16:22:31.804Z,11.41
2023-03-17T16:24:04.479Z,11.36
2023-03-17T16:25:36.929Z,11.38
2023-03-17T16:27:15.209Z,11.32
2023-03-17T16:28:49.146Z,11.33
2023-03-17T16:30:24.265Z,11.27
2023-03-17T16:31:56.318Z,11.28
2023-03-17T16:33:32.525Z,11.22
2023-03-17T16:35:13.041Z,11.22
2023-03-17T16:36:44.764Z,11.08
2023-03-17T16:38:19.508Z,11.13
2023-03-17T16:39:52.390Z,11.05
2023-03-17T16:41:27.758Z,11.05
2023-03-17T16:42:59.562Z,10.98
2023-03-17T16:44:31.587Z,10.99
2023-03-17T16:46:05.804Z,10.96
2023-03-17T16:47:37.593Z,10.86
2023-03-17T16:49:13.795Z,10.79
2023-03-17T16:50:45.572Z,10.79
2023-03-17T16:52:17.280Z,10.73
2023-03-17T16:53:49.021Z,10.70
2023-03-17T16:55:25.477Z,10.64
2023-03-17T16:56:57.589Z,10.60
2023-03-17T16:58:33.124Z,10.50
2023-03-17T17:00:07.098Z,10.48
2023-03-17T17:01:38.846Z,10.42
2023-03-17T17:03:11.318Z,10.42
2023-03-17T17:04:43.677Z,10.38
2023-03-17T17:06:15.614Z,10.31
2023-03-17T17:07:48.694Z,10.27
2023-03-17T17:09:20.461Z,10.20
2023-03-17T17:10:52.732Z,10.19
2023-03-17T17:12:24.886Z,10.13
2023-03-17T17:13:58.525Z,10.10
2023-03-17T17:15:31.912Z,10.06
2023-03-17T17:17:04.496Z,10.05
2023-03-17T17:18:37.896Z,10.00
2023-03-17T17:20:21.528Z,9.90
2023-03-17T17:21:53.813Z,9.83
2023-03-17T17:23:27.104Z,9.82
2023-03-17T17:24:58.899Z,9.81
2023-03-17T17:26:30.684Z,9.74
2023-03-17T17:28:03.122Z,9.73
2023-03-17T17:29:34.931Z,9.74
2023-03-17T17:31:08.510Z,9.73
2023-03-17T17:32:40.298Z,9.67
2023-03-17T17:34:12.009Z,9.61
2023-03-17T17:35:44.504Z,9.57
2023-03-17T17:37:17.037Z,9.58
2023-03-17T17:38:49.163Z,9.53
2023-03-17T17:40:24.593Z,9.53
2023-03-17T17:41:56.869Z,9.53
2023-03-17T17:43:29.432Z,9.46
2023-03-17T17:45:01.228Z,9.44
2023-03-17T17:46:33.791Z,9.43
2023-03-17T17:48:05.746Z,9.40
2023-03-17T17:49:37.854Z,9.40
2023-03-17T17:51:09.664Z,9.34
2023-03-17T17:52:41.413Z,9.32
2023-03-17T17:54:13.153Z,9.27
2023-03-17T17:55:46.946Z,9.24
2023-03-17T17:57:19.044Z,9.25
2023-03-17T17:58:51.492Z,9.26
2023-03-17T18:00:24.123Z,9.21
2023-03-17T18:01:56.581Z,9.22
2023-03-17T18:03:31.545Z,9.19
2023-03-17T18:05:06.010Z,9.16
2023-03-17T18:06:38.598Z,9.13
2023-03-17T18:08:13.680Z,9.12
2023-03-17T18:09:45.497Z,9.09
2023-03-17T18:11:18.054Z,9.09
2023-03-17T18:12:50.396Z,9.06
2023-03-17T18:14:22.753Z,9.02
2023-03-17T18:15:54.568Z,8.95
2023-03-17T18:17:27.379Z,8.97
2023-03-17T18:19:00.468Z,8.93
2023-03-17T18:20:32.591Z,8.93
2023-03-17T18:22:05.057Z,8.94
2023-03-17T18:23:37.117Z,8.92
2023-03-17T18:25:11.345Z,8.91
2023-03-17T18:26:43.188Z,8.93
2023-03-17T18:28:14.929Z,8.91
2023-03-17T18:29:47.422Z,8.89
2023-03-17T18:31:27.538Z,8.87
2023-03-17T18:33:15.089Z,8.86
2023-03-17T18:34:48.162Z,8.80
2023-03-17T18:36:21.615Z,8.76
2023-03-17T18:37:55.446Z,8.77
2023-03-17T18:39:27.662Z,8.73
2023-03-17T18:40:59.740Z,8.73
2023-03-17T18:42:32.009Z,8.73
2023-03-17T18:44:03.877Z,8.71
2023-03-17T18:45:35.621Z,8.71
2023-03-17T18:47:07.643Z,8.71
2023-03-17T18:48:40.111Z,8.65
2023-03-17T18:50:13.936Z,8.66
2023-03-17T18:51:45.623Z,8.65
2023-03-17T18:53:18.167Z,8.65
2023-03-17T18:54:49.915Z,8.64
2023-03-17T18:56:23.443Z,8.61
2023-03-17T18:57:55.251Z,8.61
2023-03-17T18:59:27.216Z,8.63
2023-03-17T19:01:02.094Z,8.62
2023-03-17T19:02:54.275Z,8.58
2023-03-17T19:04:26.405Z,8.54
2023-03-17T19:05:58.315Z,8.63
2023-03-17T19:07:30.092Z,8.64
2023-03-17T19:09:02.337Z,8.66
2023-03-17T19:10:34.578Z,8.67
2023-03-17T19:12:10.186Z,8.67
2023-03-17T19:13:42.552Z,8.66
2023-03-17T19:15:14.915Z,8.60
2023-03-17T19:16:46.863Z,8.63
2023-03-17T19:18:18.741Z,8.60
2023-03-17T19:19:52.237Z,8.53
2023-03-17T19:21:24.765Z,8.43
2023-03-17T19:22:57.593Z,8.47
2023-03-17T19:24:31.232Z,8.49
2023-03-17T19:26:04.800Z,8.51
2023-03-17T19:27:37.547Z,8.43
2023-03-17T19:29:10.136Z,8.47
2023-03-17T19:30:45.178Z,8.40
2023-03-17T19:32:17.531Z,8.38
2023-03-17T19:33:49.261Z,8.41
2023-03-17T19:35:21.138Z,8.40
2023-03-17T19:36:53.860Z,8.41
2023-03-17T19:38:28.663Z,8.32
2023-03-17T19:40:00.566Z,8.32
2023-03-17T19:41:32.854Z,8.35
2023-03-17T19:43:06.761Z,8.34
2023-03-17T19:44:39.217Z,8.31
2023-03-17T19:46:12.033Z,8.28
2023-03-17T19:47:43.965Z,8.28
2023-03-17T19:49:16.657Z,8.32
2023-03-17T19:50:49.171Z,8.29
2023-03-17T19:52:22.088Z,8.29
2023-03-17T19:53:54.334Z,8.25
2023-03-17T19:55:27.099Z,8.22
2023-03-17T19:56:59.507Z,8.17
2023-03-17T19:58:31.323Z,8.19
2023-03-17T20:00:04.754Z,8.16
2023-03-17T20:01:42.426Z,8.21
2023-03-17T20:03:15.022Z,8.18
2023-03-17T20:04:48.586Z,8.12
2023-03-17T20:06:20.807Z,8.16
2023-03-17T20:07:52.586Z,8.15
2023-03-17T20:09:26.995Z,8.16
2023-03-17T20:10:59.284Z,8.10
2023-03-17T20:12:37.508Z,8.20
2023-03-17T20:14:09.331Z,8.16
2023-03-17T20:15:41.576Z,8.15
2023-03-17T20:17:14.648Z,8.17
2023-03-17T20:18:46.757Z,8.14
2023-03-17T20:20:18.530Z,8.13
2023-03-17T20:21:51.139Z,8.12
2023-03-17T20:23:23.541Z,8.14
2023-03-17T20:24:56.174Z,8.19
2023-03-17T20:26:28.784Z,8.14
2023-03-17T20:28:00.520Z,8.13
2023-03-17T20:29:36.024Z,8.14
2023-03-17T20:31:09.575Z,8.16
2023-03-17T20:32:41.464Z,8.07
2023-03-17T20:34:13.826Z,8.06
2023-03-17T20:35:49.013Z,8.07
2023-03-17T20:37:20.817Z,8.09
2023-03-17T20:38:53.410Z,8.03
2023-03-17T20:40:26.281Z,7.97
2023-03-17T20:41:58.098Z,8.03
2023-03-17T20:43:32.000Z,8.05
2023-03-17T20:45:04.555Z,8.04
2023-03-17T20:46:36.545Z,8.01
2023-03-17T20:48:10.726Z,7.99
2023-03-17T20:49:42.938Z,8.00
2023-03-17T20:51:16.880Z,7.98
2023-03-17T20:52:49.805Z,7.98
2023-03-17T20:54:23.372Z,7.98
2023-03-17T20:55:56.436Z,7.97
2023-03-17T20:57:29.009Z,7.93